createdAt,value
2023-01-06T00:01:22.336Z,101187.59
2023-01-06T00:03:51.476Z,101183.06
2023-01-06T00:06:27.360Z,101179.16
2023-01-06T00:08:56.027Z,101173.38
2023-01-06T00:11:24.653Z,101172.06
2023-01-06T00:13:52.729Z,101173.44
2023-01-06T00:16:21.728Z,101163.81
2023-01-06T00:18:49.699Z,101167.53
2023-01-06T00:21:17.456Z,101175.09
2023-01-06T00:23:46.435Z,101172.41
2023-01-06T00:26:14.105Z,101168.88
2023-01-06T00:28:41.777Z,101168.88
2023-01-06T00:31:10.949Z,101170.84
2023-01-06T00:33:39.195Z,101171.19
2023-01-06T00:36:08.565Z,101164.97
2023-01-06T00:38:37.802Z,101171.88
2023-01-06T00:41:28.850Z,101170.19
2023-01-06T00:43:57.049Z,101159.38
2023-01-06T00:46:28.756Z,101160.22
2023-01-06T00:49:06.362Z,101163.75
2023-01-06T00:51:35.241Z,101160.69
2023-01-06T00:54:03.105Z,101159.69
2023-01-06T00:56:33.131Z,101155.28
2023-01-06T00:59:02.947Z,101156.16
2023-01-06T01:01:30.709Z,101149.56
2023-01-06T01:03:58.594Z,101156.47
2023-01-06T01:06:26.337Z,101157.81
2023-01-06T01:08:55.256Z,101158.47
2023-01-06T01:11:41.770Z,101150.84
2023-01-06T01:14:11.977Z,101163.69
2023-01-06T01:16:39.852Z,101152.50
2023-01-06T01:19:09.349Z,101155.97
2023-01-06T01:21:37.119Z,101161.19
2023-01-06T01:24:05.575Z,101156.59
2023-01-06T01:26:33.465Z,101165.00
2023-01-06T01:29:01.514Z,101153.38
2023-01-06T01:31:31.474Z,101148.97
2023-01-06T01:33:59.201Z,101145.13
2023-01-06T01:36:26.858Z,101147.47
2023-01-06T01:38:56.979Z,101136.97
2023-01-06T01:41:26.180Z,101139.00
2023-01-06T01:43:57.914Z,101138.66
2023-01-06T01:46:30.150Z,101137.44
2023-01-06T01:49:02.845Z,101142.00
2023-01-06T01:51:33.129Z,101133.88
2023-01-06T01:54:06.805Z,101125.97
2023-01-06T01:56:36.604Z,101131.84
2023-01-06T01:59:07.297Z,101115.44
2023-01-06T02:01:35.056Z,101119.00
2023-01-06T02:04:05.267Z,101114.44
2023-01-06T02:06:33.351Z,101111.22
2023-01-06T02:09:05.504Z,101111.03
2023-01-06T02:11:36.695Z,101113.59
2023-01-06T02:14:10.872Z,101102.41
2023-01-06T02:16:53.819Z,101105.75
2023-01-06T02:19:43.283Z,101098.97
2023-01-06T02:22:30.278Z,101104.00
2023-01-06T02:25:14.554Z,101104.66
2023-01-06T02:28:30.669Z,101102.13
2023-01-06T02:31:24.761Z,101106.34
2023-01-06T02:34:00.214Z,101100.09
2023-01-06T02:36:40.277Z,101095.69
2023-01-06T02:39:24.313Z,101088.78
2023-01-06T02:42:04.708Z,101084.41
2023-01-06T02:44:40.993Z,101095.88
2023-01-06T02:47:16.476Z,101085.06
2023-01-06T02:49:53.971Z,101081.69
2023-01-06T02:52:29.106Z,101073.97
2023-01-06T02:54:59.844Z,101070.25
2023-01-06T02:57:35.914Z,101057.00
2023-01-06T03:00:13.553Z,101054.13
2023-01-06T03:02:44.386Z,101051.88
2023-01-06T03:05:17.329Z,101047.13
2023-01-06T03:07:47.317Z,101042.91
2023-01-06T03:10:19.863Z,101054.59
2023-01-06T03:12:52.596Z,101047.41
2023-01-06T03:15:20.997Z,101042.91
2023-01-06T03:17:48.919Z,101042.72
2023-01-06T03:20:18.226Z,101034.59
2023-01-06T03:22:45.913Z,101028.81
2023-01-06T03:25:14.101Z,101028.38
2023-01-06T03:27:41.767Z,101037.13
2023-01-06T03:30:13.172Z,101034.91
2023-01-06T03:32:49.412Z,101033.00
2023-01-06T03:35:33.010Z,101024.28
2023-01-06T03:38:05.780Z,101019.69
2023-01-06T03:40:40.174Z,101027.59
2023-01-06T03:43:16.455Z,101015.50
2023-01-06T03:45:56.365Z,101018.84
2023-01-06T03:48:35.131Z,101020.91
2023-01-06T03:51:10.614Z,101018.19
2023-01-06T03:53:43.532Z,101023.97
2023-01-06T03:56:17.657Z,101010.84
2023-01-06T03:58:49.407Z,101006.91
2023-01-06T04:01:18.072Z,101009.78
2023-01-06T04:03:47.387Z,101009.78
2023-01-06T04:06:16.838Z,101008.78
2023-01-06T04:08:44.648Z,101002.34
2023-01-06T04:11:33.265Z,101005.69
2023-01-06T04:14:00.336Z,100993.94
2023-01-06T04:16:28.104Z,100985.09
2023-01-06T04:18:55.737Z,100982.41
2023-01-06T04:21:26.306Z,100976.31
2023-01-06T04:23:53.974Z,100977.00
2023-01-06T04:26:21.639Z,100975.13
2023-01-06T04:28:49.428Z,100973.44
2023-01-06T04:31:17.293Z,100977.00
2023-01-06T04:33:44.980Z,100973.25
2023-01-06T04:36:12.745Z,100970.53
2023-01-06T04:38:41.763Z,100963.91
2023-01-06T04:41:09.451Z,100964.78
2023-01-06T04:43:37.144Z,100963.75
2023-01-06T04:46:05.331Z,100961.50
2023-01-06T04:48:33.987Z,100959.66
2023-01-06T04:51:02.659Z,100956.94
2023-01-06T04:53:30.313Z,100954.88
2023-01-06T04:56:03.560Z,100943.22
2023-01-06T04:58:31.233Z,100949.84
2023-01-06T05:01:01.010Z,100949.47
2023-01-06T05:03:29.200Z,100938.44
2023-01-06T05:05:56.817Z,100946.75
2023-01-06T05:08:24.450Z,100947.03
2023-01-06T05:10:52.203Z,100942.44
2023-01-06T05:13:21.141Z,100944.13
2023-01-06T05:15:48.733Z,100937.91
2023-01-06T05:18:16.361Z,100940.31
2023-01-06T05:20:43.995Z,100933.22
2023-01-06T05:23:11.642Z,100928.50
2023-01-06T05:25:39.354Z,100926.59
2023-01-06T05:28:07.196Z,100924.09
2023-01-06T05:30:36.195Z,100934.91
2023-01-06T05:33:03.847Z,100931.63
2023-01-06T05:35:31.520Z,100939.84
2023-01-06T05:37:59.271Z,100926.69
2023-01-06T05:40:26.902Z,100930.34
2023-01-06T05:42:55.019Z,100923.88
2023-01-06T05:45:23.591Z,100926.56
2023-01-06T05:47:52.700Z,100925.19
2023-01-06T05:50:20.417Z,100921.91
2023-01-06T05:52:48.111Z,100918.91
2023-01-06T05:55:16.034Z,100921.63
2023-01-06T05:57:43.639Z,100914.16
2023-01-06T06:00:12.837Z,100905.75
2023-01-06T06:02:40.513Z,100909.41
2023-01-06T06:05:10.160Z,100902.50
2023-01-06T06:07:38.185Z,100899.97
2023-01-06T06:10:06.782Z,100895.78
2023-01-06T06:12:34.395Z,100897.63
2023-01-06T06:15:02.564Z,100898.75
2023-01-06T06:17:32.076Z,100897.19
2023-01-06T06:19:59.790Z,100886.72
2023-01-06T06:22:28.873Z,100900.44
2023-01-06T06:24:56.613Z,100914.81
2023-01-06T06:27:24.339Z,100907.53
2023-01-06T06:29:51.990Z,100900.91
2023-01-06T06:32:19.641Z,100899.22
2023-01-06T06:34:47.390Z,100896.50
2023-01-06T06:37:15.282Z,100890.84
2023-01-06T06:39:44.311Z,100896.25
2023-01-06T06:42:11.950Z,100897.94
2023-01-06T06:44:39.667Z,100889.16
2023-01-06T06:47:07.457Z,100885.06
2023-01-06T06:49:35.125Z,100880.88
2023-01-06T06:52:02.760Z,100878.59
2023-01-06T06:54:30.725Z,100881.28
2023-01-06T06:56:59.707Z,100880.28
2023-01-06T06:59:27.347Z,100877.09
2023-01-06T07:01:55.116Z,100871.25
2023-01-06T07:04:22.884Z,100873.97
2023-01-06T07:06:50.577Z,100871.88
2023-01-06T07:09:18.228Z,100861.72
2023-01-06T07:11:45.840Z,100857.13
2023-01-06T07:14:14.759Z,100847.59
2023-01-06T07:16:42.413Z,100847.41
2023-01-06T07:19:10.276Z,100848.00
2023-01-06T07:21:38.675Z,100832.22
2023-01-06T07:24:07.007Z,100844.69
2023-01-06T07:26:35.581Z,100844.06
2023-01-06T07:29:05.021Z,100844.91
2023-01-06T07:31:39.390Z,100845.09
2023-01-06T07:34:07.826Z,100845.09
2023-01-06T07:36:35.659Z,100847.78
2023-01-06T07:39:04.459Z,100841.56
2023-01-06T07:41:32.509Z,100850.09
2023-01-06T07:44:00.167Z,100849.53
2023-01-06T07:46:27.826Z,100845.63
2023-01-06T07:48:57.564Z,100846.84
2023-01-06T07:51:25.216Z,100850.00
2023-01-06T07:53:52.905Z,100844.13
2023-01-06T07:56:21.650Z,100838.06
2023-01-06T07:58:49.412Z,100834.97
2023-01-06T08:01:17.315Z,100834.78
2023-01-06T08:03:44.958Z,100839.81
2023-01-06T08:06:14.569Z,100834.03
2023-01-06T08:08:42.987Z,100839.22
2023-01-06T08:11:14.809Z,100834.03
2023-01-06T08:13:42.433Z,100847.91
2023-01-06T08:16:11.864Z,100837.09
2023-01-06T08:18:40.230Z,100843.09
2023-01-06T08:21:10.413Z,100852.44
2023-01-06T08:23:39.806Z,100846.00
2023-01-06T08:26:10.158Z,100832.28
2023-01-06T08:28:37.804Z,100843.56
2023-01-06T08:31:09.829Z,100846.28
2023-01-06T08:33:37.622Z,100841.47
2023-01-06T08:36:07.797Z,100834.03
2023-01-06T08:38:37.369Z,100845.66
2023-01-06T08:41:06.609Z,100844.00
2023-01-06T08:43:34.463Z,100841.09
2023-01-06T08:46:04.672Z,100839.59
2023-01-06T08:48:33.403Z,100846.06
2023-01-06T08:51:03.738Z,100846.50
2023-01-06T08:53:31.367Z,100854.25
2023-01-06T08:55:59.513Z,100840.91
2023-01-06T08:58:28.528Z,100837.34
2023-01-06T09:00:56.509Z,100842.56
2023-01-06T09:03:24.149Z,100839.84
2023-01-06T09:05:55.747Z,100843.69
2023-01-06T09:08:23.737Z,100850.75
2023-01-06T09:10:52.337Z,100847.41
2023-01-06T09:13:19.975Z,100850.38
2023-01-06T09:15:49.125Z,100846.66
2023-01-06T09:18:16.916Z,100853.72
2023-01-06T09:20:45.807Z,100850.81
2023-01-06T09:23:13.543Z,100848.28
2023-01-06T09:25:41.242Z,100860.34
2023-01-06T09:28:11.036Z,100863.06
2023-01-06T09:30:39.548Z,100855.84
2023-01-06T09:33:08.595Z,100852.88
2023-01-06T09:35:36.497Z,100868.06
2023-01-06T09:38:04.272Z,100865.50
2023-01-06T09:40:42.035Z,100862.38
2023-01-06T09:43:19.199Z,100859.06
2023-01-06T09:45:50.604Z,100875.56
2023-01-06T09:48:26.857Z,100872.41
2023-01-06T09:50:57.836Z,100872.41
2023-01-06T09:53:30.096Z,100859.31
2023-01-06T09:56:00.846Z,100859.97
2023-01-06T09:58:33.309Z,100855.78
2023-01-06T10:01:06.868Z,100852.44
2023-01-06T10:03:35.981Z,100854.13
2023-01-06T10:06:24.950Z,100853.84
2023-01-06T10:09:03.001Z,100853.84
2023-01-06T10:11:40.912Z,100862.81
2023-01-06T10:14:16.526Z,100874.03
2023-01-06T10:16:59.827Z,100866.09
2023-01-06T10:19:41.325Z,100868.41
2023-01-06T10:22:20.147Z,100869.13
2023-01-06T10:24:55.874Z,100864.53
2023-01-06T10:27:28.267Z,100860.19
2023-01-06T10:29:57.820Z,100863.47
2023-01-06T10:32:30.822Z,100859.28
2023-01-06T10:35:01.233Z,100861.97
2023-01-06T10:37:37.463Z,100853.09
2023-01-06T10:40:16.754Z,100863.25
2023-01-06T10:42:57.544Z,100864.47
2023-01-06T10:45:29.892Z,100877.81
2023-01-06T10:47:59.031Z,100864.44
2023-01-06T10:50:28.820Z,100858.25
2023-01-06T10:52:56.543Z,100865.72
2023-01-06T10:55:34.635Z,100868.69
2023-01-06T10:58:10.818Z,100871.19
2023-01-06T11:00:38.507Z,100869.91
2023-01-06T11:03:32.258Z,100881.94
2023-01-06T11:06:07.512Z,100875.78
2023-01-06T11:08:36.409Z,100881.19
2023-01-06T11:11:16.656Z,100877.00
2023-01-06T11:13:57.291Z,100878.22
2023-01-06T11:16:28.331Z,100881.13
2023-01-06T11:18:58.918Z,100870.31
2023-01-06T11:21:39.005Z,100875.50
2023-01-06T11:24:19.149Z,100876.59
2023-01-06T11:26:53.001Z,100875.00
2023-01-06T11:29:28.927Z,100868.94
2023-01-06T11:32:01.575Z,100865.81
2023-01-06T11:34:31.023Z,100875.84
2023-01-06T11:37:01.485Z,100870.00
2023-01-06T11:39:34.314Z,100875.00
2023-01-06T11:42:14.253Z,100880.03
2023-01-06T11:44:45.375Z,100876.34
2023-01-06T11:47:17.097Z,100881.56
2023-01-06T11:49:50.793Z,100880.75
2023-01-06T11:52:27.141Z,100873.69
2023-01-06T11:55:04.571Z,100875.38
2023-01-06T11:57:40.282Z,100873.94
2023-01-06T12:00:29.013Z,100877.69
2023-01-06T12:03:03.490Z,100877.47
2023-01-06T12:05:39.457Z,100880.19
2023-01-06T12:08:16.517Z,100884.38
2023-01-06T12:10:49.311Z,100890.66
2023-01-06T12:13:17.676Z,100888.31
2023-01-06T12:15:52.670Z,100889.59
2023-01-06T12:18:28.235Z,100896.63
2023-01-06T12:20:57.737Z,100892.91
2023-01-06T12:23:30.149Z,100897.09
2023-01-06T12:26:02.029Z,100893.22
2023-01-06T12:28:33.058Z,100904.66
2023-01-06T12:31:07.457Z,100899.66
2023-01-06T12:33:40.641Z,100904.47
2023-01-06T12:36:16.045Z,100899.47
2023-01-06T12:38:55.205Z,100901.25
2023-01-06T12:41:29.673Z,100908.50
2023-01-06T12:44:06.529Z,100908.84
2023-01-06T12:46:45.983Z,100904.00
2023-01-06T12:49:22.585Z,100896.97
2023-01-06T12:51:55.074Z,100904.00
2023-01-06T12:54:29.930Z,100901.25
2023-01-06T12:57:10.222Z,100909.78
2023-01-06T12:59:51.592Z,100915.19
2023-01-06T13:02:35.707Z,100909.06
2023-01-06T13:05:17.596Z,100910.94
2023-01-06T13:07:54.840Z,100922.81
2023-01-06T13:10:31.214Z,100924.50
2023-01-06T13:13:12.706Z,100924.50
2023-01-06T13:15:45.522Z,100918.22
2023-01-06T13:18:18.204Z,100929.97
2023-01-06T13:20:51.569Z,100928.88
2023-01-06T13:23:53.196Z,100938.03
2023-01-06T13:26:41.476Z,100938.63
2023-01-06T13:29:19.103Z,100941.81
2023-01-06T13:32:18.586Z,100947.38
2023-01-06T13:35:16.607Z,100952.53
2023-01-06T13:38:01.393Z,100958.75
2023-01-06T13:40:34.723Z,100942.88
2023-01-06T13:43:07.110Z,100944.50
2023-01-06T13:45:40.247Z,100945.97
2023-01-06T13:48:15.575Z,100948.69
2023-01-06T13:50:44.848Z,100942.63
2023-01-06T13:53:18.563Z,100955.84
2023-01-06T13:55:47.680Z,100957.84
2023-01-06T13:58:39.846Z,100966.69
2023-01-06T14:01:10.539Z,100966.53
2023-01-06T14:03:39.305Z,100965.59
2023-01-06T14:06:11.859Z,100970.75
2023-01-06T14:08:54.161Z,100966.63
2023-01-06T14:11:27.724Z,100974.75
2023-01-06T14:13:59.200Z,100973.50
2023-01-06T14:16:44.370Z,100973.50
2023-01-06T14:19:18.713Z,100977.91
2023-01-06T14:21:49.721Z,100977.09
2023-01-06T14:24:31.131Z,100978.72
2023-01-06T14:27:03.094Z,100983.97
2023-01-06T14:30:05.347Z,100975.84
2023-01-06T14:33:07.484Z,100974.25
2023-01-06T14:35:46.640Z,100975.19
2023-01-06T14:38:28.139Z,100979.59
2023-01-06T14:41:04.436Z,100975.53
2023-01-06T14:43:42.706Z,100989.91
2023-01-06T14:46:21.387Z,100986.38
2023-01-06T14:48:57.279Z,100992.16
2023-01-06T14:51:33.628Z,100987.94
2023-01-06T14:54:12.376Z,100985.50
2023-01-06T14:56:45.739Z,100982.59
2023-01-06T14:59:16.855Z,100988.81
2023-01-06T15:01:58.715Z,100988.16
2023-01-06T15:04:31.501Z,100998.28
2023-01-06T15:07:17.204Z,100994.44
2023-01-06T15:09:46.313Z,100991.94
2023-01-06T15:12:26.535Z,100999.31
2023-01-06T15:14:55.195Z,100991.53
2023-01-06T15:17:25.253Z,100994.44
2023-01-06T15:19:53.866Z,100999.88
2023-01-06T15:22:24.712Z,101004.31
2023-01-06T15:24:53.026Z,101006.00
2023-01-06T15:27:21.296Z,101005.63
2023-01-06T15:29:53.209Z,101009.63
2023-01-06T15:32:25.231Z,101012.53
2023-01-06T15:34:56.209Z,101016.31
2023-01-06T15:37:26.643Z,101011.63
2023-01-06T15:39:54.683Z,101014.22
2023-01-06T15:42:24.513Z,101014.66
2023-01-06T15:44:57.879Z,101013.88
2023-01-06T15:47:33.063Z,101018.28
2023-01-06T15:50:03.555Z,101019.69
2023-01-06T15:52:34.715Z,101035.56
2023-01-06T15:55:04.705Z,101023.31
2023-01-06T15:57:37.318Z,101031.88
2023-01-06T16:00:09.091Z,101033.56
2023-01-06T16:02:39.573Z,101039.25
2023-01-06T16:05:07.746Z,101030.72
2023-01-06T16:07:40.529Z,101034.47
2023-01-06T16:10:30.622Z,101043.06
2023-01-06T16:13:06.605Z,101035.13
2023-01-06T16:15:46.128Z,101037.38
2023-01-06T16:18:15.527Z,101036.03
2023-01-06T16:20:43.417Z,101037.25
2023-01-06T16:23:22.126Z,101040.63
2023-01-06T16:25:51.581Z,101036.28
2023-01-06T16:28:24.449Z,101046.72
2023-01-06T16:31:07.178Z,101048.13
2023-01-06T16:33:40.136Z,101049.53
2023-01-06T16:36:16.160Z,101056.44
2023-01-06T16:38:44.367Z,101049.63
2023-01-06T16:41:17.881Z,101043.81
2023-01-06T16:43:46.589Z,101047.81
2023-01-06T16:46:20.953Z,101050.91
2023-01-06T16:48:51.583Z,101055.66
2023-01-06T16:51:19.506Z,101048.41
2023-01-06T16:53:48.169Z,101052.59
2023-01-06T16:56:19.495Z,101048.00
2023-01-06T16:58:47.274Z,101038.00
2023-01-06T17:01:17.348Z,101045.09
2023-01-06T17:03:45.977Z,101050.44
2023-01-06T17:06:20.774Z,101045.41
2023-01-06T17:08:49.105Z,101042.44
2023-01-06T17:11:18.700Z,101051.97
2023-01-06T17:13:53.953Z,101055.91
2023-01-06T17:16:27.068Z,101061.13
2023-01-06T17:18:56.676Z,101062.34
2023-01-06T17:21:29.420Z,101069.81
2023-01-06T17:23:59.676Z,101066.44
2023-01-06T17:26:27.901Z,101071.03
2023-01-06T17:28:58.508Z,101062.25
2023-01-06T17:31:35.211Z,101072.16
2023-01-06T17:34:11.361Z,101058.78
2023-01-06T17:36:42.531Z,101070.84
2023-01-06T17:39:22.152Z,101074.22
2023-01-06T17:41:50.041Z,101069.34
2023-01-06T17:44:19.555Z,101076.09
2023-01-06T17:46:47.783Z,101082.31
2023-01-06T17:49:47.336Z,101071.31
2023-01-06T17:52:19.212Z,101073.00
2023-01-06T17:55:11.636Z,101073.66
2023-01-06T17:57:42.071Z,101075.31
2023-01-06T18:00:19.125Z,101080.38
2023-01-06T18:02:49.734Z,101079.31
2023-01-06T18:06:07.865Z,101068.06
2023-01-06T18:08:38.610Z,101080.28
2023-01-06T18:11:24.749Z,101084.22
2023-01-06T18:13:53.603Z,101085.88
2023-01-06T18:16:28.948Z,101091.94
2023-01-06T18:19:05.845Z,101087.94
2023-01-06T18:21:37.299Z,101093.25
2023-01-06T18:24:22.460Z,101088.06
2023-01-06T18:26:53.275Z,101083.72
2023-01-06T18:29:24.820Z,101095.56
2023-01-06T18:31:54.603Z,101097.41
2023-01-06T18:34:29.627Z,101101.31
2023-01-06T18:36:58.807Z,101098.34
2023-01-06T18:39:30.639Z,101094.06
2023-01-06T18:42:08.642Z,101094.59
2023-01-06T18:44:36.354Z,101107.19
2023-01-06T18:47:12.762Z,101104.84
2023-01-06T18:49:40.443Z,101105.41
2023-01-06T18:52:30.922Z,101104.53
2023-01-06T18:55:00.909Z,101105.84
2023-01-06T18:57:32.052Z,101100.09
2023-01-06T19:00:13.296Z,101109.72
2023-01-06T19:02:40.860Z,101106.91
2023-01-06T19:05:13.097Z,101106.91
2023-01-06T19:07:40.693Z,101104.94
2023-01-06T19:10:26.404Z,101103.09
2023-01-06T19:12:59.154Z,101106.91
2023-01-06T19:15:27.978Z,101109.53
2023-01-06T19:17:55.789Z,101109.00
2023-01-06T19:20:28.669Z,101103.88
2023-01-06T19:22:57.091Z,101100.41
2023-01-06T19:25:33.322Z,101103.47
2023-01-06T19:28:03.630Z,101096.88
2023-01-06T19:30:41.974Z,101101.59
2023-01-06T19:33:24.060Z,101100.41
2023-01-06T19:35:52.517Z,101104.50
2023-01-06T19:38:26.386Z,101108.22
2023-01-06T19:40:56.474Z,101100.84
2023-01-06T19:43:28.888Z,101100.38
2023-01-06T19:45:57.466Z,101110.16
2023-01-06T19:48:32.551Z,101101.59
2023-01-06T19:51:09.538Z,101099.81
2023-01-06T19:53:43.521Z,101105.59
2023-01-06T19:56:22.137Z,101108.00
2023-01-06T19:58:53.301Z,101107.50
2023-01-06T20:01:22.860Z,101107.88
2023-01-06T20:03:54.357Z,101116.47
2023-01-06T20:06:23.461Z,101115.63
2023-01-06T20:08:53.268Z,101108.19
2023-01-06T20:11:23.293Z,101099.22
2023-01-06T20:13:51.989Z,101109.84
2023-01-06T20:16:19.737Z,101103.72
2023-01-06T20:18:47.372Z,101115.53
2023-01-06T20:21:15.002Z,101118.63
2023-01-06T20:23:42.735Z,101123.19
2023-01-06T20:26:10.357Z,101109.84
2023-01-06T20:28:39.400Z,101112.34
2023-01-06T20:31:07.017Z,101116.09
2023-01-06T20:33:34.702Z,101123.38
2023-01-06T20:36:02.273Z,101114.44
2023-01-06T20:38:29.856Z,101125.72
2023-01-06T20:40:57.434Z,101118.44
2023-01-06T20:43:24.974Z,101109.31
2023-01-06T20:45:54.031Z,101121.63
2023-01-06T20:48:21.550Z,101118.53
2023-01-06T20:50:49.159Z,101121.53
2023-01-06T20:53:16.793Z,101118.84
2023-01-06T20:55:44.386Z,101118.84
2023-01-06T20:58:12.012Z,101120.16
2023-01-06T21:00:39.692Z,101130.16
2023-01-06T21:03:08.673Z,101121.91
2023-01-06T21:05:37.620Z,101132.75
2023-01-06T21:08:05.451Z,101124.97
2023-01-06T21:10:33.154Z,101120.63
2023-01-06T21:13:00.709Z,101124.88
2023-01-06T21:15:28.302Z,101115.94
2023-01-06T21:17:55.936Z,101120.66
2023-01-06T21:20:24.812Z,101114.91
2023-01-06T21:22:52.443Z,101106.41
2023-01-06T21:25:20.635Z,101114.72
2023-01-06T21:27:48.239Z,101104.91
2023-01-06T21:30:17.716Z,101112.19
2023-01-06T21:32:45.397Z,101119.25
2023-01-06T21:35:12.991Z,101121.63
2023-01-06T21:37:41.826Z,101121.63
2023-01-06T21:40:11.206Z,101112.66
2023-01-06T21:42:56.365Z,101113.97
2023-01-06T21:45:24.372Z,101115.84
2023-01-06T21:47:52.050Z,101114.16
2023-01-06T21:50:20.591Z,101111.25
2023-01-06T21:52:49.849Z,101109.41
2023-01-06T21:55:17.674Z,101101.31
2023-01-06T21:57:45.440Z,101096.91
2023-01-06T22:00:13.869Z,101092.50
2023-01-06T22:02:41.575Z,101090.66
2023-01-06T22:05:09.958Z,101091.88
2023-01-06T22:07:41.745Z,101092.41
2023-01-06T22:10:13.167Z,101091.28
2023-01-06T22:12:43.576Z,101106.50
2023-01-06T22:15:12.266Z,101101.53
2023-01-06T22:17:40.439Z,101110.69
2023-01-06T22:20:09.375Z,101097.81
2023-01-06T22:22:37.609Z,101110.50
2023-01-06T22:25:06.653Z,101113.59
2023-01-06T22:27:35.627Z,101109.09
2023-01-06T22:30:03.285Z,101110.09
2023-01-06T22:32:31.785Z,101120.81
2023-01-06T22:34:59.423Z,101113.53
2023-01-06T22:37:26.963Z,101114.00
2023-01-06T22:39:54.817Z,101115.31
2023-01-06T22:42:22.829Z,101122.44
2023-01-06T22:44:51.720Z,101119.72
2023-01-06T22:47:19.281Z,101113.44
2023-01-06T22:49:46.855Z,101115.88
2023-01-06T22:52:15.175Z,101117.09
2023-01-06T22:54:42.769Z,101116.72
2023-01-06T22:57:10.554Z,101115.50
2023-01-06T22:59:38.103Z,101113.31
2023-01-06T23:02:07.113Z,101116.00
2023-01-06T23:04:34.726Z,101110.41
2023-01-06T23:07:02.332Z,101106.50
2023-01-06T23:09:29.903Z,101101.72
2023-01-06T23:11:57.557Z,101104.81
2023-01-06T23:14:25.160Z,101100.06
2023-01-06T23:16:52.779Z,101094.47
2023-01-06T23:19:21.777Z,101095.13
2023-01-06T23:21:50.196Z,101093.28
2023-01-06T23:24:17.863Z,101087.88
2023-01-06T23:26:48.411Z,101094.22
2023-01-06T23:29:16.035Z,101087.59
2023-01-06T23:31:45.602Z,101090.41
2023-01-06T23:34:14.787Z,101086.28
2023-01-06T23:36:44.325Z,101089.66
2023-01-06T23:39:13.528Z,101087.16
2023-01-06T23:41:41.425Z,101088.66
2023-01-06T23:44:12.795Z,101080.97
2023-01-06T23:46:41.174Z,101074.53
2023-01-06T23:49:12.219Z,101071.16
2023-01-06T23:51:40.375Z,101076.38
2023-01-06T23:54:11.463Z,101074.53
2023-01-06T23:56:39.562Z,101084.88
2023-01-06T23:59:09.605Z,101079.28
